Time;durP1;ratioP1;P1;durP2;ratioP2;P2;SDS_P1;SDS_P2;PMS_P1;PMS_P2;Temp;Humidity;BMP_temperature;BMP_pressure;BME280_temperature;BME280_humidity;BME280_pressure;Samples;Min_cycle;Max_cycle;Signal;HPM_P1;HPM_P2
2021/06/28 00:01:16;;;;;;;6.50;3.03;;;20.50;78.90;;;;;;5038467;28;20111;-88
2021/06/28 00:03:42;;;;;;;5.47;3.08;;;20.40;79.30;;;;;;5038494;28;20032;-88
2021/06/28 00:06:08;;;;;;;6.07;2.78;;;20.30;78.90;;;;;;5040922;28;20059;-88
2021/06/28 00:08:37;;;;;;;5.10;3.00;;;20.30;79.50;;;;;;5038001;28;20048;-89
2021/06/28 00:11:04;;;;;;;7.28;3.10;;;20.30;79.60;;;;;;5038356;28;20059;-90
2021/06/28 00:13:29;;;;;;;4.68;3.13;;;20.20;79.70;;;;;;5038236;28;20504;-89
2021/06/28 00:15:55;;;;;;;3.60;2.75;;;20.20;79.80;;;;;;5038276;28;20123;-87
2021/06/28 00:18:21;;;;;;;4.20;2.92;;;20.20;79.90;;;;;;5037555;28;20428;-84
2021/06/28 00:20:48;;;;;;;4.68;3.20;;;20.20;79.80;;;;;;5037624;28;20094;-86
2021/06/28 00:23:14;;;;;;;9.77;3.50;;;20.20;79.70;;;;;;5055389;28;20071;-85
2021/06/28 00:25:40;;;;;;;5.18;3.53;;;20.20;80.00;;;;;;5054992;28;20033;-86
2021/06/28 00:28:07;;;;;;;4.82;2.80;;;20.20;80.10;;;;;;5037487;28;20440;-86
2021/06/28 00:30:38;;;;;;;6.10;3.33;;;20.20;80.10;;;;;;5037117;28;20106;-86
2021/06/28 00:33:18;;;;;;;5.75;3.67;;;20.10;80.40;;;;;;5037357;28;20037;-86
2021/06/28 00:35:44;;;;;;;6.72;3.10;;;20.10;80.70;;;;;;5037305;28;20029;-86
2021/06/28 00:38:11;;;;;;;4.13;2.95;;;20.00;81.00;;;;;;5037114;28;20033;-85
2021/06/28 00:40:38;;;;;;;3.83;2.72;;;20.00;80.80;;;;;;5036367;28;20088;-86
2021/06/28 00:43:04;;;;;;;6.22;3.00;;;19.90;80.20;;;;;;5035084;28;20068;-86
2021/06/28 00:45:32;;;;;;;5.07;2.75;;;19.90;80.30;;;;;;5034786;28;20078;-87
2021/06/28 00:48:04;;;;;;;3.88;2.40;;;19.90;80.50;;;;;;5036621;28;20131;-86
2021/06/28 00:50:31;;;;;;;3.40;3.03;;;19.80;80.90;;;;;;5037465;28;20033;-87
2021/06/28 00:53:06;;;;;;;4.25;2.30;;;19.80;80.90;;;;;;5054366;28;20401;-86
2021/06/28 00:55:32;;;;;;;5.35;2.75;;;19.70;81.00;;;;;;5054173;28;20067;-84
2021/06/28 00:57:59;;;;;;;3.78;2.50;;;19.70;81.20;;;;;;5053632;28;20036;-84
2021/06/28 01:00:25;;;;;;;3.50;2.22;;;19.70;81.00;;;;;;5053162;28;20039;-84
2021/06/28 01:02:51;;;;;;;4.78;2.15;;;19.70;80.80;;;;;;5053845;28;20095;-85
2021/06/28 01:05:24;;;;;;;3.30;2.58;;;19.70;80.80;;;;;;5053180;28;20072;-85
2021/06/28 01:07:51;;;;;;;3.65;2.80;;;19.70;81.00;;;;;;5036416;28;20405;-87
2021/06/28 01:10:18;;;;;;;7.07;3.20;;;19.70;81.30;;;;;;5036475;28;20489;-85
2021/06/28 01:12:45;;;;;;;7.95;3.20;;;19.70;81.60;;;;;;5036500;28;20332;-85
2021/06/28 01:15:11;;;;;;;5.57;2.97;;;19.70;82.00;;;;;;5035562;28;20764;-84
2021/06/28 01:17:39;;;;;;;6.80;3.13;;;19.70;82.10;;;;;;5053371;28;20107;-85
2021/06/28 01:20:04;;;;;;;4.63;3.47;;;19.70;82.20;;;;;;5035359;28;20025;-83
2021/06/28 01:22:33;;;;;;;6.97;3.20;;;19.60;82.50;;;;;;5053716;28;20021;-85
2021/06/28 01:24:59;;;;;;;5.60;3.55;;;19.60;82.80;;;;;;5035604;28;20037;-85
2021/06/28 01:27:27;;;;;;;9.90;3.00;;;19.50;83.20;;;;;;5036175;28;20021;-86
2021/06/28 01:29:53;;;;;;;5.10;2.95;;;19.50;83.30;;;;;;5035822;28;20032;-84
2021/06/28 01:32:20;;;;;;;8.35;3.38;;;19.40;83.40;;;;;;5053537;28;20049;-89
2021/06/28 01:34:45;;;;;;;5.78;2.83;;;19.40;83.50;;;;;;5055326;28;20099;-90
2021/06/28 01:37:22;;;;;;;10.95;4.03;;;19.40;83.40;;;;;;5041964;28;20060;-90
2021/06/28 01:39:53;;;;;;;6.80;2.88;;;19.40;83.40;;;;;;5054317;28;20053;-90
2021/06/28 01:42:19;;;;;;;2.92;2.42;;;19.30;82.70;;;;;;5035958;28;20021;-90
2021/06/28 01:44:45;;;;;;;5.18;2.83;;;19.30;82.80;;;;;;5035625;28;20596;-85
2021/06/28 01:47:11;;;;;;;4.95;2.63;;;19.30;83.00;;;;;;5035378;28;20021;-86
2021/06/28 01:49:37;;;;;;;3.88;2.88;;;19.40;83.20;;;;;;5053284;28;20052;-86
2021/06/28 01:52:04;;;;;;;3.33;2.60;;;19.20;83.10;;;;;;5035622;28;20475;-86
2021/06/28 01:54:30;;;;;;;5.10;2.70;;;19.20;83.20;;;;;;5052851;28;20032;-84
2021/06/28 01:56:57;;;;;;;5.35;2.70;;;19.10;83.20;;;;;;5035186;28;20501;-86
2021/06/28 01:59:25;;;;;;;3.67;2.33;;;19.10;83.50;;;;;;5035530;28;20039;-86
2021/06/28 02:01:51;;;;;;;3.45;2.60;;;19.10;83.60;;;;;;5035514;28;20021;-84
2021/06/28 02:04:18;;;;;;;5.13;3.10;;;19.00;83.70;;;;;;5035192;28;20036;-85
2021/06/28 02:06:43;;;;;;;8.57;2.65;;;19.00;84.00;;;;;;5035281;28;20083;-86
2021/06/28 02:09:09;;;;;;;6.57;2.83;;;19.00;84.40;;;;;;5034925;28;20029;-86
2021/06/28 02:11:35;;;;;;;4.03;2.85;;;18.90;84.60;;;;;;5052471;28;20021;-85
2021/06/28 02:14:01;;;;;;;5.97;2.70;;;18.90;84.90;;;;;;5035798;28;20116;-91
2021/06/28 02:16:26;;;;;;;4.32;2.63;;;18.90;85.20;;;;;;5053581;28;20532;-92
2021/06/28 02:18:52;;;;;;;4.30;3.05;;;18.80;85.30;;;;;;5035783;28;20024;-90
2021/06/28 02:21:17;;;;;;;4.78;2.95;;;18.90;85.50;;;;;;5057664;28;20084;-90
2021/06/28 02:23:43;;;;;;;3.10;2.42;;;18.90;85.50;;;;;;5053549;28;20036;-88
2021/06/28 02:26:12;;;;;;;4.90;3.40;;;18.90;85.50;;;;;;5035102;28;20113;-86
2021/06/28 02:28:40;;;;;;;3.22;2.45;;;18.90;85.60;;;;;;5034651;28;20507;-83
2021/06/28 02:31:08;;;;;;;3.22;2.47;;;18.80;85.60;;;;;;5052064;28;20095;-85
2021/06/28 02:33:35;;;;;;;5.10;3.08;;;18.70;85.60;;;;;;5034410;28;20158;-86
2021/06/28 02:36:02;;;;;;;7.80;2.92;;;18.70;85.70;;;;;;5034997;28;20032;-90
2021/06/28 02:38:27;;;;;;;3.33;2.53;;;18.70;85.90;;;;;;5035214;28;20116;-88
2021/06/28 02:40:54;;;;;;;5.53;3.10;;;18.70;85.60;;;;;;5052682;28;20151;-89
2021/06/28 02:43:20;;;;;;;4.22;2.40;;;18.60;85.70;;;;;;5034700;28;20024;-88
2021/06/28 02:45:46;;;;;;;4.50;2.60;;;18.60;85.50;;;;;;5035291;28;20048;-89
2021/06/28 02:48:12;;;;;;;3.50;2.75;;;18.60;85.70;;;;;;5034932;28;20094;-88
2021/06/28 02:50:38;;;;;;;8.05;2.78;;;18.60;85.80;;;;;;5034640;28;20101;-86
2021/06/28 02:53:04;;;;;;;5.65;2.95;;;18.60;85.90;;;;;;5035666;28;20024;-88
2021/06/28 02:55:30;;;;;;;4.07;2.45;;;18.60;86.10;;;;;;5034971;28;20116;-89
2021/06/28 02:57:56;;;;;;;4.00;2.65;;;18.50;85.90;;;;;;5035029;28;20063;-91
2021/06/28 03:00:23;;;;;;;3.20;2.50;;;18.60;85.80;;;;;;5035090;28;20117;-89
2021/06/28 03:02:49;;;;;;;4.85;2.45;;;18.60;85.60;;;;;;5052508;28;20481;-90
2021/06/28 03:05:15;;;;;;;6.72;2.47;;;18.60;85.70;;;;;;5036183;28;20105;-89
2021/06/28 03:07:41;;;;;;;4.63;2.60;;;18.70;85.70;;;;;;5036748;28;20048;-89
2021/06/28 03:10:09;;;;;;;6.85;3.03;;;18.70;85.50;;;;;;5035046;28;20029;-90
2021/06/28 03:12:36;;;;;;;5.28;2.40;;;18.70;85.50;;;;;;5052792;28;20040;-92
2021/06/28 03:15:04;;;;;;;6.00;3.08;;;18.70;85.50;;;;;;5034676;28;20067;-92
2021/06/28 03:17:30;;;;;;;4.65;2.40;;;18.70;85.60;;;;;;5034763;28;20028;-93
2021/06/28 03:19:56;;;;;;;5.47;2.90;;;18.80;85.60;;;;;;5034995;28;20037;-92
2021/06/28 03:22:22;;;;;;;5.55;2.90;;;18.80;85.60;;;;;;5052476;28;20029;-86
2021/06/28 03:24:47;;;;;;;4.93;3.53;;;18.80;86.20;;;;;;5034367;28;20052;-85
2021/06/28 03:27:13;;;;;;;3.95;2.67;;;18.90;85.60;;;;;;5034261;28;20048;-87
2021/06/28 03:29:38;;;;;;;4.90;2.78;;;18.80;85.60;;;;;;5034376;28;20111;-86
2021/06/28 03:32:04;;;;;;;8.77;2.97;;;18.90;85.20;;;;;;5034130;28;20049;-86
2021/06/28 03:34:30;;;;;;;3.83;2.63;;;19.00;84.30;;;;;;5034345;28;20128;-86
2021/06/28 03:36:56;;;;;;;5.75;2.90;;;19.00;84.10;;;;;;5034361;28;20139;-88
2021/06/28 03:39:21;;;;;;;5.82;2.97;;;19.10;84.30;;;;;;5034236;28;20058;-87
2021/06/28 03:41:47;;;;;;;5.38;2.80;;;19.10;84.00;;;;;;5034353;28;20029;-86
2021/06/28 03:44:13;;;;;;;5.03;2.90;;;19.20;83.80;;;;;;5034323;28;20385;-87
2021/06/28 03:46:38;;;;;;;3.03;2.33;;;19.20;84.10;;;;;;5034204;28;20496;-86
2021/06/28 03:49:04;;;;;;;6.43;2.95;;;19.30;84.10;;;;;;5034069;28;20436;-89
2021/06/28 03:51:30;;;;;;;6.32;3.50;;;19.40;83.80;;;;;;5036655;28;20032;-88
2021/06/28 03:53:56;;;;;;;5.85;3.13;;;19.40;83.50;;;;;;5031302;28;20040;-82
2021/06/28 03:56:22;;;;;;;6.28;2.53;;;19.60;83.40;;;;;;5030965;28;20033;-85
2021/06/28 03:58:47;;;;;;;6.22;3.25;;;19.70;82.90;;;;;;5030665;28;20035;-79
2021/06/28 04:01:13;;;;;;;3.97;2.58;;;19.90;82.50;;;;;;5030585;28;20125;-80
2021/06/28 04:03:39;;;;;;;4.95;3.17;;;20.20;81.80;;;;;;5030443;28;20610;-77
2021/06/28 04:06:07;;;;;;;4.32;2.50;;;20.40;81.00;;;;;;5030662;28;20409;-78
2021/06/28 04:08:35;;;;;;;4.53;3.08;;;20.70;80.10;;;;;;5030539;28;20029;-77
2021/06/28 04:11:03;;;;;;;5.70;2.90;;;21.00;78.40;;;;;;5030285;28;20071;-78
2021/06/28 04:13:29;;;;;;;3.45;2.53;;;21.40;77.10;;;;;;5048034;28;20083;-77
2021/06/28 04:15:55;;;;;;;7.32;2.58;;;21.60;75.90;;;;;;5048270;28;20033;-80
2021/06/28 04:18:21;;;;;;;5.57;2.40;;;21.90;75.40;;;;;;5030290;28;20094;-80
2021/06/28 04:20:47;;;;;;;3.83;2.72;;;22.00;74.70;;;;;;5029978;28;20581;-79
2021/06/28 04:23:13;;;;;;;4.47;2.33;;;22.30;74.20;;;;;;5029942;28;20029;-80
2021/06/28 04:25:38;;;;;;;6.25;2.97;;;22.30;73.80;;;;;;5047721;28;20032;-81
2021/06/28 04:28:05;;;;;;;3.38;2.85;;;22.50;73.70;;;;;;5047829;28;20121;-81
2021/06/28 04:30:30;;;;;;;5.13;2.55;;;22.70;73.10;;;;;;5047709;28;20057;-80
2021/06/28 04:32:56;;;;;;;4.68;2.97;;;22.70;73.00;;;;;;5048538;28;20110;-81
2021/06/28 04:35:25;;;;;;;4.53;2.72;;;22.80;73.40;;;;;;5033501;28;20405;-80
2021/06/28 04:37:55;;;;;;;5.47;2.78;;;22.80;73.70;;;;;;5051496;28;20032;-79
2021/06/28 04:40:24;;;;;;;3.25;2.40;;;22.90;73.40;;;;;;5033428;28;20444;-79
2021/06/28 04:42:51;;;;;;;3.92;2.55;;;23.10;72.90;;;;;;5051253;28;20056;-79
2021/06/28 04:45:18;;;;;;;3.25;2.38;;;23.30;72.00;;;;;;5051482;28;20087;-80
2021/06/28 04:47:44;;;;;;;4.28;2.45;;;23.50;71.50;;;;;;5051351;28;20035;-78
2021/06/28 04:50:11;;;;;;;2.90;2.00;;;23.50;71.40;;;;;;5033157;28;20039;-80
2021/06/28 04:52:37;;;;;;;5.90;2.47;;;23.60;71.10;;;;;;5051085;28;20121;-80
2021/06/28 04:55:09;;;;;;;4.68;2.70;;;23.70;71.10;;;;;;5068471;28;20455;-80
2021/06/28 04:57:35;;;;;;;4.25;2.20;;;23.70;71.40;;;;;;5053002;28;20444;-80
2021/06/28 05:00:01;;;;;;;5.05;2.65;;;23.80;70.80;;;;;;5070984;28;20064;-80
2021/06/28 05:02:26;;;;;;;4.22;2.67;;;24.00;70.20;;;;;;5052601;28;20056;-80
2021/06/28 05:04:52;;;;;;;8.77;2.40;;;24.10;70.40;;;;;;5049359;28;20051;-80
2021/06/28 05:07:18;;;;;;;4.07;2.30;;;24.20;69.90;;;;;;5064127;28;20023;-80
2021/06/28 05:09:45;;;;;;;3.17;2.72;;;24.30;68.60;;;;;;5051750;28;20040;-80
2021/06/28 05:12:13;;;;;;;3.08;2.13;;;24.50;65.20;;;;;;5050750;28;20024;-80
2021/06/28 05:14:39;;;;;;;2.88;2.33;;;24.60;65.50;;;;;;5032493;28;20036;-80
2021/06/28 05:17:07;;;;;;;4.15;2.42;;;24.70;65.30;;;;;;5050720;28;20118;-80
2021/06/28 05:19:33;;;;;;;3.40;2.08;;;24.90;63.40;;;;;;5032692;28;20032;-78
2021/06/28 05:21:59;;;;;;;3.22;2.20;;;25.00;62.20;;;;;;5050694;28;20021;-78
2021/06/28 05:24:24;;;;;;;3.88;2.08;;;25.10;60.40;;;;;;5032854;28;20043;-78
2021/06/28 05:26:51;;;;;;;3.28;2.03;;;25.20;60.90;;;;;;5060144;28;20032;-78
2021/06/28 05:29:17;;;;;;;7.95;2.25;;;25.30;60.60;;;;;;5052631;28;20086;-78
2021/06/28 05:31:42;;;;;;;2.63;1.85;;;25.40;58.50;;;;;;5049133;28;20048;-77
2021/06/28 05:34:08;;;;;;;4.72;1.98;;;25.40;57.50;;;;;;5049073;28;20452;-80
2021/06/28 05:36:34;;;;;;;4.93;2.30;;;25.50;57.70;;;;;;5048930;28;20039;-80
2021/06/28 05:39:01;;;;;;;6.38;2.75;;;25.70;56.20;;;;;;5049264;28;20391;-76
2021/06/28 05:41:26;;;;;;;6.78;2.72;;;25.80;56.00;;;;;;5050578;28;20037;-77
2021/06/28 05:43:52;;;;;;;3.13;1.77;;;25.80;56.20;;;;;;5048854;28;20045;-77
2021/06/28 05:46:18;;;;;;;5.68;2.45;;;26.10;55.10;;;;;;5049975;28;20101;-77
2021/06/28 05:48:44;;;;;;;3.30;1.60;;;26.40;54.50;;;;;;5048407;28;20035;-80
2021/06/28 05:51:09;;;;;;;6.65;2.15;;;26.90;52.40;;;;;;5040268;28;20037;-79
2021/06/28 05:53:35;;;;;;;6.20;1.85;;;27.20;52.30;;;;;;5029985;28;20512;-80
2021/06/28 05:56:02;;;;;;;4.30;2.00;;;27.50;50.90;;;;;;5029839;28;20486;-78
2021/06/28 05:58:29;;;;;;;2.30;1.50;;;28.30;50.30;;;;;;5029994;28;20445;-79
2021/06/28 06:00:56;;;;;;;2.65;1.52;;;29.50;47.90;;;;;;5030000;28;20083;-81
2021/06/28 06:03:22;;;;;;;4.35;1.55;;;31.10;44.60;;;;;;5028446;28;20025;-80
2021/06/28 06:05:48;;;;;;;4.68;1.40;;;32.50;41.50;;;;;;5033718;28;20037;-79
2021/06/28 06:08:14;;;;;;;4.05;1.80;;;33.90;38.20;;;;;;5049814;28;20036;-79
2021/06/28 06:10:39;;;;;;;3.22;1.70;;;34.70;36.20;;;;;;5046804;28;20451;-79
2021/06/28 06:13:05;;;;;;;6.25;1.83;;;35.00;35.10;;;;;;5039294;28;20820;-80
2021/06/28 06:15:31;;;;;;;5.03;1.70;;;35.70;34.10;;;;;;5032967;28;20116;-79
2021/06/28 06:17:57;;;;;;;5.28;2.05;;;35.90;33.40;;;;;;5027160;28;20607;-79
2021/06/28 06:20:22;;;;;;;6.05;1.65;;;36.10;33.00;;;;;;5029214;28;20029;-79
2021/06/28 06:22:48;;;;;;;3.03;1.63;;;36.90;31.90;;;;;;5027533;28;20029;-79
2021/06/28 06:25:15;;;;;;;3.80;1.63;;;36.70;31.80;;;;;;5028848;28;20100;-79
2021/06/28 06:27:41;;;;;;;3.05;1.63;;;36.70;32.00;;;;;;5027895;28;20039;-79
2021/06/28 06:30:08;;;;;;;4.32;2.00;;;37.10;31.20;;;;;;5029961;28;20034;-79
2021/06/28 06:32:34;;;;;;;7.80;2.35;;;36.80;30.80;;;;;;5068973;28;20111;-79
2021/06/28 06:34:59;;;;;;;2.90;1.67;;;36.70;31.20;;;;;;5050800;28;20636;-80
2021/06/28 06:37:25;;;;;;;3.70;1.70;;;36.70;30.80;;;;;;5051214;28;20298;-79
2021/06/28 06:39:51;;;;;;;4.40;2.00;;;36.50;31.50;;;;;;5069179;28;20052;-78
2021/06/28 06:42:17;;;;;;;5.93;2.10;;;37.00;31.20;;;;;;5068985;28;20028;-79
2021/06/28 06:44:43;;;;;;;3.35;1.70;;;37.60;30.00;;;;;;5068952;28;20111;-78
2021/06/28 06:47:09;;;;;;;6.85;2.20;;;37.20;30.40;;;;;;5051085;28;20119;-79
2021/06/28 06:49:35;;;;;;;2.88;2.10;;;37.50;30.20;;;;;;5050944;28;20031;-79
2021/06/28 06:52:00;;;;;;;3.20;1.80;;;37.00;30.00;;;;;;5068777;28;20046;-78
2021/06/28 06:54:26;;;;;;;5.97;1.70;;;37.00;31.00;;;;;;5068738;28;20410;-80
2021/06/28 06:56:52;;;;;;;4.47;2.00;;;36.90;31.20;;;;;;5050371;28;20397;-79
2021/06/28 06:59:17;;;;;;;4.68;2.65;;;37.70;30.80;;;;;;5050979;28;20115;-79
2021/06/28 07:01:43;;;;;;;5.13;2.25;;;37.60;30.30;;;;;;5068869;28;20028;-79
2021/06/28 07:04:09;;;;;;;5.32;2.20;;;37.30;31.00;;;;;;5068466;28;20103;-79
2021/06/28 07:06:35;;;;;;;6.13;2.28;;;37.30;30.80;;;;;;5050728;28;20052;-79
2021/06/28 07:09:00;;;;;;;3.33;1.80;;;37.10;31.00;;;;;;5068726;28;20028;-79
2021/06/28 07:11:26;;;;;;;3.85;2.40;;;37.30;31.00;;;;;;5068611;28;20029;-79
2021/06/28 07:13:52;;;;;;;5.50;2.22;;;37.80;30.80;;;;;;5068998;28;20036;-79
2021/06/28 07:16:19;;;;;;;3.45;2.13;;;37.80;30.70;;;;;;5068638;28;20559;-79
2021/06/28 07:18:46;;;;;;;4.35;2.40;;;37.60;30.50;;;;;;5068556;28;20400;-79
2021/06/28 07:21:11;;;;;;;3.88;2.10;;;37.50;31.00;;;;;;5050655;28;20473;-79
2021/06/28 07:23:38;;;;;;;5.32;2.00;;;37.20;31.30;;;;;;5068515;28;20033;-79
2021/06/28 07:26:04;;;;;;;4.20;2.20;;;37.20;30.80;;;;;;5050466;28;20580;-79
2021/06/28 07:28:31;;;;;;;4.13;2.28;;;37.80;30.50;;;;;;5068570;28;20024;-80
2021/06/28 07:30:58;;;;;;;6.25;2.60;;;37.90;30.00;;;;;;5068272;28;20131;-80
2021/06/28 07:33:31;;;;;;;4.18;2.45;;;37.50;30.00;;;;;;5050173;28;20017;-80
2021/06/28 07:35:58;;;;;;;3.50;2.35;;;37.60;30.00;;;;;;5068538;28;20028;-79
2021/06/28 07:38:25;;;;;;;8.20;2.42;;;37.90;29.60;;;;;;5050596;28;20054;-79
2021/06/28 07:40:51;;;;;;;3.40;2.30;;;37.60;30.10;;;;;;5068250;28;20473;-79
2021/06/28 07:43:17;;;;;;;12.02;2.45;;;37.20;30.70;;;;;;5068465;28;20114;-79
2021/06/28 07:45:47;;;;;;;15.25;3.42;;;37.40;30.90;;;;;;5068177;28;20056;-79
2021/06/28 07:48:12;;;;;;;4.38;2.08;;;37.50;31.20;;;;;;5068287;28;20020;-79
2021/06/28 07:50:38;;;;;;;3.70;2.38;;;37.70;30.60;;;;;;5050208;28;20086;-79
2021/06/28 07:53:04;;;;;;;3.20;2.30;;;38.20;29.80;;;;;;5050332;28;20432;-80
2021/06/28 07:55:29;;;;;;;5.00;2.60;;;38.00;30.10;;;;;;5050029;28;20025;-79
2021/06/28 07:57:55;;;;;;;6.15;2.75;;;38.20;30.10;;;;;;5046660;28;20152;-79
2021/06/28 08:00:21;;;;;;;6.25;2.20;;;38.40;29.20;;;;;;5066775;28;20028;-78
2021/06/28 08:02:47;;;;;;;4.68;2.45;;;38.10;29.40;;;;;;5046537;28;20564;-79
2021/06/28 08:05:13;;;;;;;5.40;2.63;;;38.20;29.90;;;;;;5048293;28;20036;-79
2021/06/28 08:07:40;;;;;;;6.32;2.15;;;38.10;30.40;;;;;;5047708;28;20043;-78
2021/06/28 08:10:08;;;;;;;5.38;2.60;;;38.30;30.00;;;;;;5050734;28;20086;-78
2021/06/28 08:12:33;;;;;;;9.52;2.38;;;38.30;30.00;;;;;;5060714;28;20493;-80
2021/06/28 08:15:00;;;;;;;3.25;2.25;;;38.20;30.00;;;;;;5071678;28;20044;-81
2021/06/28 08:17:25;;;;;;;8.77;3.33;;;37.90;30.00;;;;;;5071747;28;20067;-80
2021/06/28 08:19:51;;;;;;;5.82;2.15;;;38.30;29.80;;;;;;5071732;28;20438;-81
2021/06/28 08:22:17;;;;;;;3.40;2.53;;;38.20;29.80;;;;;;5053705;28;20059;-81
2021/06/28 08:24:44;;;;;;;5.40;2.20;;;37.70;30.00;;;;;;5053611;28;20139;-80
2021/06/28 08:27:10;;;;;;;2.33;2.00;;;37.80;31.00;;;;;;5071626;28;20461;-79
2021/06/28 08:29:36;;;;;;;5.22;2.47;;;38.10;30.70;;;;;;5071504;28;20033;-80
2021/06/28 08:32:03;;;;;;;5.70;1.98;;;38.50;30.30;;;;;;5071677;28;20052;-81
2021/06/28 08:34:29;;;;;;;3.60;2.17;;;38.80;30.40;;;;;;5053644;28;20119;-80
2021/06/28 08:36:55;;;;;;;5.13;2.03;;;39.10;29.90;;;;;;5053583;28;20115;-80
2021/06/28 08:39:21;;;;;;;4.47;2.45;;;39.40;29.30;;;;;;5053362;28;20083;-80
2021/06/28 08:41:55;;;;;;;6.43;2.58;;;39.60;28.50;;;;;;5071403;28;20025;-80
2021/06/28 08:44:21;;;;;;;;;;;39.40;29.10;;;;;;5071611;28;20378;-79
2021/06/28 08:46:47;;;;;;;15.85;2.53;;;39.00;28.80;;;;;;5071236;28;19904;-81
2021/06/28 08:49:13;;;;;;;6.32;3.53;;;39.00;29.30;;;;;;5053396;28;20078;-81
2021/06/28 08:51:40;;;;;;;6.72;2.22;;;39.30;29.30;;;;;;5039200;28;20032;-80
2021/06/28 08:54:09;;;;;;;5.35;2.17;;;39.60;28.50;;;;;;5050967;28;20100;-80
2021/06/28 08:56:36;;;;;;;4.65;2.33;;;39.20;29.00;;;;;;5051097;28;20032;-79
2021/06/28 08:59:04;;;;;;;2.80;2.08;;;39.30;29.10;;;;;;5033097;28;20067;-80
2021/06/28 09:01:32;;;;;;;7.85;2.10;;;39.50;27.90;;;;;;5051004;28;20087;-80
2021/06/28 09:03:57;;;;;;;12.20;2.50;;;39.40;27.60;;;;;;5066574;28;20028;-80
2021/06/28 09:06:27;;;;;;;2.08;1.88;;;39.20;28.70;;;;;;5070825;28;20023;-80
2021/06/28 09:09:04;;;;;;;7.07;2.10;;;39.40;28.40;;;;;;5055291;28;20017;-80
2021/06/28 09:11:34;;;;;;;6.80;1.65;;;39.70;28.10;;;;;;5070131;28;20155;-80
2021/06/28 09:14:04;;;;;;;5.13;2.50;;;39.80;27.50;;;;;;5070276;28;20228;-81
2021/06/28 09:16:30;;;;;;;5.82;1.52;;;39.50;27.10;;;;;;5050765;28;20517;-80
2021/06/28 09:19:15;;;;;;;6.85;2.08;;;39.70;27.90;;;;;;5069789;28;20031;-80
2021/06/28 09:21:42;;;;;;;4.63;1.83;;;39.80;27.70;;;;;;5070493;28;20020;-80
2021/06/28 09:24:27;;;;;;;4.18;2.42;;;39.90;27.80;;;;;;5070428;28;20025;-80
2021/06/28 09:27:18;;;;;;;12.35;2.17;;;40.00;27.50;;;;;;5070600;28;20586;-80
2021/06/28 09:29:48;;;;;;;4.57;1.73;;;39.90;27.80;;;;;;5052357;28;20386;-80
2021/06/28 09:32:16;;;;;;;6.85;2.97;;;40.00;27.90;;;;;;5070150;28;20101;-80
2021/06/28 09:34:45;;;;;;;3.55;2.13;;;40.20;27.80;;;;;;5052293;28;20029;-80
2021/06/28 09:37:24;;;;;;;5.15;2.40;;;40.40;26.40;;;;;;5057261;28;20059;-80
2021/06/28 09:39:56;;;;;;;2.00;1.77;;;39.80;27.50;;;;;;5047617;28;20421;-80
2021/06/28 09:42:24;;;;;;;2.95;1.98;;;39.60;27.90;;;;;;5069146;28;20021;-80
2021/06/28 09:44:54;;;;;;;2.90;1.63;;;39.90;27.90;;;;;;5070018;28;20032;-80
2021/06/28 09:47:24;;;;;;;3.33;1.55;;;40.30;27.10;;;;;;5070505;28;20017;-81
2021/06/28 09:50:08;;;;;;;2.92;1.65;;;39.90;27.20;;;;;;5070030;28;20033;-79
2021/06/28 09:52:37;;;;;;;2.30;1.65;;;39.80;27.60;;;;;;5064202;28;20017;-81
2021/06/28 09:55:14;;;;;;;8.60;1.98;;;40.00;27.10;;;;;;5052019;28;20488;-80
2021/06/28 09:58:04;;;;;;;5.53;1.75;;;39.80;27.80;;;;;;5069784;28;20085;-80
2021/06/28 10:00:30;;;;;;;3.97;1.58;;;39.60;28.50;;;;;;5069833;28;20031;-80
2021/06/28 10:02:56;;;;;;;2.67;1.70;;;39.40;28.20;;;;;;5069801;28;20071;-79
2021/06/28 10:05:30;;;;;;;1.92;1.73;;;39.10;28.60;;;;;;5051616;28;20079;-79
2021/06/28 10:07:56;;;;;;;5.00;2.03;;;38.80;28.70;;;;;;5051863;28;20324;-77
2021/06/28 10:10:28;;;;;;;4.40;1.58;;;38.60;29.30;;;;;;5051875;28;20438;-77
2021/06/28 10:12:54;;;;;;;4.32;1.73;;;38.30;29.50;;;;;;5048027;28;20044;-78
2021/06/28 10:15:25;;;;;;;4.03;1.63;;;37.90;29.50;;;;;;5060654;28;20125;-79
2021/06/28 10:17:51;;;;;;;5.68;1.73;;;37.50;30.00;;;;;;5048049;28;20492;-78
2021/06/28 10:20:20;;;;;;;3.15;1.58;;;37.30;29.90;;;;;;5050171;28;20064;-79
2021/06/28 10:22:47;;;;;;;5.90;1.50;;;37.10;30.00;;;;;;5067592;28;20719;-78
2021/06/28 10:25:16;;;;;;;3.05;1.70;;;36.90;30.30;;;;;;5068111;28;20570;-78
2021/06/28 10:27:43;;;;;;;4.50;1.33;;;37.00;29.20;;;;;;5048133;28;20087;-78
2021/06/28 10:30:12;;;;;;;5.47;1.63;;;36.20;30.10;;;;;;5048705;28;20425;-79
2021/06/28 10:32:39;;;;;;;4.68;1.42;;;35.90;31.00;;;;;;5065794;28;20040;-79
2021/06/28 10:35:07;;;;;;;3.30;1.85;;;36.10;31.50;;;;;;5045871;28;20036;-79
2021/06/28 10:37:43;;;;;;;4.80;1.88;;;36.10;31.50;;;;;;5049138;28;20793;-80
2021/06/28 10:40:52;;;;;;;3.10;1.27;;;36.20;31.00;;;;;;5067993;28;20088;-78
2021/06/28 10:43:26;;;;;;;3.60;1.70;;;36.10;31.40;;;;;;5068602;28;20850;-79
2021/06/28 10:45:52;;;;;;;1.70;1.30;;;35.80;31.10;;;;;;5068909;28;20037;-79
2021/06/28 10:48:21;;;;;;;3.20;1.80;;;35.70;31.80;;;;;;5050918;28;20105;-78
2021/06/28 10:50:51;;;;;;;3.65;1.40;;;35.90;32.60;;;;;;5068861;28;20024;-79
2021/06/28 10:53:18;;;;;;;1.92;1.30;;;35.80;30.90;;;;;;5068750;28;20048;-79
2021/06/28 10:55:44;;;;;;;2.72;1.20;;;35.70;30.40;;;;;;5068662;28;20126;-79
2021/06/28 10:58:31;;;;;;;1.85;1.13;;;35.60;31.10;;;;;;5068611;28;20035;-79
2021/06/28 11:00:59;;;;;;;4.68;1.17;;;35.60;31.90;;;;;;5068616;28;20028;-79
2021/06/28 11:03:26;;;;;;;3.75;1.35;;;35.50;32.10;;;;;;5068684;28;20523;-78
2021/06/28 11:06:22;;;;;;;2.00;1.30;;;35.50;31.90;;;;;;5050675;28;20054;-78
2021/06/28 11:08:57;;;;;;;;;;;35.50;31.30;;;;;;5069224;28;20086;-78
2021/06/28 11:11:46;;;;;;;4.88;1.48;;;35.30;31.00;;;;;;5068608;28;20399;-79
2021/06/28 11:14:18;;;;;;;3.80;1.23;;;35.10;32.50;;;;;;5050322;28;20021;-78
2021/06/28 11:16:57;;;;;;;7.20;1.38;;;35.00;32.40;;;;;;5050407;28;20025;-78
2021/06/28 11:19:46;;;;;;;2.50;1.30;;;34.90;32.70;;;;;;5068508;28;20021;-78
2021/06/28 11:22:34;;;;;;;1.30;1.20;;;35.00;33.50;;;;;;5068504;28;20028;-79
2021/06/28 11:25:06;;;;;;;3.35;1.40;;;35.20;33.60;;;;;;5068356;28;20048;-79
2021/06/28 11:27:31;;;;;;;4.50;1.45;;;35.20;32.80;;;;;;5068293;28;20486;-77
2021/06/28 11:29:58;;;;;;;3.85;1.58;;;35.30;32.70;;;;;;5068510;28;20044;-78
2021/06/28 11:32:26;;;;;;;2.55;1.50;;;35.20;33.00;;;;;;5068268;28;20051;-79
2021/06/28 11:34:53;;;;;;;5.38;1.45;;;35.10;32.90;;;;;;5050195;28;20032;-79
2021/06/28 11:37:19;;;;;;;8.80;1.77;;;35.00;32.90;;;;;;5068277;28;20024;-79
2021/06/28 11:39:56;;;;;;;1.85;1.23;;;34.90;32.70;;;;;;5050286;28;20039;-79
2021/06/28 11:42:32;;;;;;;2.40;1.27;;;34.80;32.30;;;;;;5069778;28;20038;-78
2021/06/28 11:45:12;;;;;;;2.72;1.48;;;34.40;32.90;;;;;;5072105;28;20036;-79
2021/06/28 11:47:50;;;;;;;2.22;1.38;;;34.60;33.80;;;;;;5072403;28;20025;-79
2021/06/28 11:50:37;;;;;;;2.40;1.55;;;34.70;33.00;;;;;;5054474;28;20035;-79
2021/06/28 11:53:05;;;;;;;8.60;1.50;;;35.00;32.70;;;;;;5054270;28;20031;-79
2021/06/28 11:55:33;;;;;;;1.73;1.10;;;35.10;32.50;;;;;;5054148;28;20385;-78
2021/06/28 11:58:02;;;;;;;2.10;0.75;;;35.30;32.60;;;;;;5054139;28;20074;-79
2021/06/28 12:00:29;;;;;;;2.63;1.10;;;35.30;32.50;;;;;;5054144;28;20124;-79
2021/06/28 12:03:08;;;;;;;3.47;1.00;;;35.40;32.30;;;;;;5072259;28;20028;-79
2021/06/28 12:05:34;;;;;;;3.45;1.10;;;35.30;31.00;;;;;;5072076;28;20378;-78
2021/06/28 12:07:59;;;;;;;1.75;1.10;;;35.20;31.90;;;;;;5071953;28;20031;-79
2021/06/28 12:10:25;;;;;;;2.53;1.00;;;35.20;32.10;;;;;;5072172;28;20036;-79
2021/06/28 12:12:58;;;;;;;3.50;1.30;;;35.30;32.00;;;;;;5071771;28;20034;-77
2021/06/28 12:15:25;;;;;;;1.88;1.08;;;35.30;31.70;;;;;;5054011;28;20024;-78
2021/06/28 12:17:51;;;;;;;6.38;1.65;;;35.20;31.50;;;;;;5071758;28;20031;-79
2021/06/28 12:20:19;;;;;;;1.65;1.10;;;35.10;31.70;;;;;;5071751;28;20554;-78
2021/06/28 12:22:45;;;;;;;2.13;1.20;;;34.80;32.20;;;;;;5071565;28;20100;-77
2021/06/28 12:25:13;;;;;;;3.78;1.55;;;34.70;32.20;;;;;;5071563;28;20037;-79
2021/06/28 12:27:44;;;;;;;2.85;1.50;;;34.70;32.50;;;;;;5053543;28;20051;-78
2021/06/28 12:30:21;;;;;;;2.00;0.95;;;34.70;32.90;;;;;;5053502;28;20385;-79
2021/06/28 12:33:01;;;;;;;2.42;1.00;;;34.70;32.80;;;;;;5053472;28;20047;-78
2021/06/28 12:35:29;;;;;;;1.38;1.00;;;34.60;33.10;;;;;;5071241;28;20032;-79
2021/06/28 12:37:57;;;;;;;1.73;1.27;;;34.50;33.00;;;;;;5053750;28;20068;-79
2021/06/28 12:40:32;;;;;;;3.80;1.13;;;34.40;33.30;;;;;;5053405;28;20575;-78
2021/06/28 12:43:00;;;;;;;2.67;1.08;;;34.40;33.30;;;;;;5053439;28;20029;-78
2021/06/28 12:45:31;;;;;;;3.47;1.25;;;34.50;33.80;;;;;;5071246;28;20036;-78
2021/06/28 12:47:57;;;;;;;2.13;1.15;;;34.70;33.50;;;;;;5071435;28;20074;-78
2021/06/28 12:50:29;;;;;;;1.63;1.20;;;34.60;32.80;;;;;;5053171;28;20024;-79
2021/06/28 12:52:55;;;;;;;2.13;1.13;;;34.30;32.90;;;;;;5071254;28;20439;-79